sensor_id;sensor_type;location;lat;lon;timestamp;temperature;humidity
33109;HTU21D;19481;51.118;6.940;2022-07-19T00:01:18;21.55;39.14
33109;HTU21D;19481;51.118;6.940;2022-07-19T00:06:19;21.40;39.34
33109;HTU21D;19481;51.118;6.940;2022-07-19T00:11:21;21.39;39.31
33109;HTU21D;19481;51.118;6.940;2022-07-19T00:16:24;21.18;40.01
33109;HTU21D;19481;51.118;6.940;2022-07-19T00:21:25;21.05;40.23
33109;HTU21D;19481;51.118;6.940;2022-07-19T00:26:27;20.86;40.84
33109;HTU21D;19481;51.118;6.940;2022-07-19T00:31:30;20.72;41.26
33109;HTU21D;19481;51.118;6.940;2022-07-19T00:36:32;20.58;41.35
33109;HTU21D;19481;51.118;6.940;2022-07-19T00:41:38;20.40;42.19
33109;HTU21D;19481;51.118;6.940;2022-07-19T00:46:41;20.31;41.90
33109;HTU21D;19481;51.118;6.940;2022-07-19T00:51:44;20.19;42.23
33109;HTU21D;19481;51.118;6.940;2022-07-19T00:56:48;20.13;42.29
33109;HTU21D;19481;51.118;6.940;2022-07-19T01:01:51;20.00;42.62
33109;HTU21D;19481;51.118;6.940;2022-07-19T01:06:53;20.03;42.39
33109;HTU21D;19481;51.118;6.940;2022-07-19T01:11:55;19.83;43.14
33109;HTU21D;19481;51.118;6.940;2022-07-19T01:17:00;19.73;43.42
33109;HTU21D;19481;51.118;6.940;2022-07-19T01:22:03;19.71;43.29
33109;HTU21D;19481;51.118;6.940;2022-07-19T01:27:04;19.63;43.40
33109;HTU21D;19481;51.118;6.940;2022-07-19T01:32:06;19.56;43.51
33109;HTU21D;19481;51.118;6.940;2022-07-19T01:37:09;19.46;43.81
33109;HTU21D;19481;51.118;6.940;2022-07-19T01:42:11;19.38;43.84
33109;HTU21D;19481;51.118;6.940;2022-07-19T01:47:12;19.39;43.81
33109;HTU21D;19481;51.118;6.940;2022-07-19T01:52:15;19.27;44.06
33109;HTU21D;19481;51.118;6.940;2022-07-19T01:57:17;19.25;43.98
33109;HTU21D;19481;51.118;6.940;2022-07-19T02:02:19;19.16;44.24
33109;HTU21D;19481;51.118;6.940;2022-07-19T02:07:22;19.17;44.25
33109;HTU21D;19481;51.118;6.940;2022-07-19T02:12:24;19.23;44.06
33109;HTU21D;19481;51.118;6.940;2022-07-19T02:17:25;19.20;44.16
33109;HTU21D;19481;51.118;6.940;2022-07-19T02:22:28;19.03;44.64
33109;HTU21D;19481;51.118;6.940;2022-07-19T02:27:30;18.91;44.93
33109;HTU21D;19481;51.118;6.940;2022-07-19T02:32:32;18.84;45.22
33109;HTU21D;19481;51.118;6.940;2022-07-19T02:37:35;18.77;45.68
33109;HTU21D;19481;51.118;6.940;2022-07-19T02:42:37;18.66;46.14
33109;HTU21D;19481;51.118;6.940;2022-07-19T02:47:38;18.58;46.24
33109;HTU21D;19481;51.118;6.940;2022-07-19T02:52:41;18.39;46.96
33109;HTU21D;19481;51.118;6.940;2022-07-19T02:57:43;18.40;46.82
33109;HTU21D;19481;51.118;6.940;2022-07-19T03:02:44;18.41;46.74
33109;HTU21D;19481;51.118;6.940;2022-07-19T03:07:48;18.23;47.39
33109;HTU21D;19481;51.118;6.940;2022-07-19T03:12:49;18.23;47.20
33109;HTU21D;19481;51.118;6.940;2022-07-19T03:17:51;18.24;47.18
33109;HTU21D;19481;51.118;6.940;2022-07-19T03:22:54;18.14;47.45
33109;HTU21D;19481;51.118;6.940;2022-07-19T03:27:55;18.15;47.36
33109;HTU21D;19481;51.118;6.940;2022-07-19T03:32:57;18.05;47.64
33109;HTU21D;19481;51.118;6.940;2022-07-19T03:38:00;18.07;47.59
33109;HTU21D;19481;51.118;6.940;2022-07-19T03:43:02;18.05;47.57
33109;HTU21D;19481;51.118;6.940;2022-07-19T03:48:04;18.09;47.46
33109;HTU21D;19481;51.118;6.940;2022-07-19T03:53:07;18.09;47.57
33109;HTU21D;19481;51.118;6.940;2022-07-19T03:58:09;18.00;47.81
33109;HTU21D;19481;51.118;6.940;2022-07-19T04:03:10;18.06;47.70
33109;HTU21D;19481;51.118;6.940;2022-07-19T04:08:13;18.12;47.72
33109;HTU21D;19481;51.118;6.940;2022-07-19T04:13:15;18.11;47.79
33109;HTU21D;19481;51.118;6.940;2022-07-19T04:18:17;18.19;47.95
33109;HTU21D;19481;51.118;6.940;2022-07-19T04:23:20;18.27;47.86
33109;HTU21D;19481;51.118;6.940;2022-07-19T04:28:22;18.26;47.84
33109;HTU21D;19481;51.118;6.940;2022-07-19T04:33:23;18.53;47.25
33109;HTU21D;19481;51.118;6.940;2022-07-19T04:38:26;18.71;47.02
33109;HTU21D;19481;51.118;6.940;2022-07-19T04:43:28;18.95;46.48
33109;HTU21D;19481;51.118;6.940;2022-07-19T04:48:30;20.15;43.99
33109;HTU21D;19481;51.118;6.940;2022-07-19T04:53:33;21.48;41.71
33109;HTU21D;19481;51.118;6.940;2022-07-19T04:58:34;22.60;40.28
33109;HTU21D;19481;51.118;6.940;2022-07-19T05:03:36;23.58;39.38
33109;HTU21D;19481;51.118;6.940;2022-07-19T05:08:39;24.29;38.64
33109;HTU21D;19481;51.118;6.940;2022-07-19T05:13:40;24.57;38.43
33109;HTU21D;19481;51.118;6.940;2022-07-19T05:18:42;22.51;43.35
33109;HTU21D;19481;51.118;6.940;2022-07-19T05:23:45;21.97;43.77
33109;HTU21D;19481;51.118;6.940;2022-07-19T05:28:46;21.87;43.09
33109;HTU21D;19481;51.118;6.940;2022-07-19T05:33:48;21.84;42.57
33109;HTU21D;19481;51.118;6.940;2022-07-19T05:38:51;22.03;41.76
33109;HTU21D;19481;51.118;6.940;2022-07-19T05:43:53;24.33;37.46
33109;HTU21D;19481;51.118;6.940;2022-07-19T05:48:55;26.15;35.12
33109;HTU21D;19481;51.118;6.940;2022-07-19T05:53:58;27.56;33.72
33109;HTU21D;19481;51.118;6.940;2022-07-19T05:59:01;28.60;32.73
33109;HTU21D;19481;51.118;6.940;2022-07-19T06:04:03;29.31;32.23
33109;HTU21D;19481;51.118;6.940;2022-07-19T06:09:06;30.11;31.41
33109;HTU21D;19481;51.118;6.940;2022-07-19T06:14:08;30.41;31.49
33109;HTU21D;19481;51.118;6.940;2022-07-19T06:19:10;30.72;31.29
33109;HTU21D;19481;51.118;6.940;2022-07-19T06:24:13;31.00;31.06
33109;HTU21D;19481;51.118;6.940;2022-07-19T06:29:15;31.12;30.91
33109;HTU21D;19481;51.118;6.940;2022-07-19T06:34:17;31.84;29.83
33109;HTU21D;19481;51.118;6.940;2022-07-19T06:39:19;33.03;27.23
33109;HTU21D;19481;51.118;6.940;2022-07-19T06:44:24;32.91;27.03
33109;HTU21D;19481;51.118;6.940;2022-07-19T06:49:26;33.07;28.30
33109;HTU21D;19481;51.118;6.940;2022-07-19T06:54:29;33.57;25.94
33109;HTU21D;19481;51.118;6.940;2022-07-19T06:59:31;34.07;26.46
33109;HTU21D;19481;51.118;6.940;2022-07-19T07:04:32;34.12;26.06
33109;HTU21D;19481;51.118;6.940;2022-07-19T07:09:35;34.78;22.21
33109;HTU21D;19481;51.118;6.940;2022-07-19T07:14:37;34.02;25.45
33109;HTU21D;19481;51.118;6.940;2022-07-19T07:19:39;33.76;24.97
33109;HTU21D;19481;51.118;6.940;2022-07-19T07:24:42;33.58;23.72
33109;HTU21D;19481;51.118;6.940;2022-07-19T07:29:43;34.41;22.89
33109;HTU21D;19481;51.118;6.940;2022-07-19T07:34:46;35.12;21.78
33109;HTU21D;19481;51.118;6.940;2022-07-19T07:39:49;35.51;18.67
33109;HTU21D;19481;51.118;6.940;2022-07-19T07:44:51;35.16;21.92
33109;HTU21D;19481;51.118;6.940;2022-07-19T07:49:53;36.58;19.96
33109;HTU21D;19481;51.118;6.940;2022-07-19T07:54:56;36.09;17.48
33109;HTU21D;19481;51.118;6.940;2022-07-19T07:59:58;35.78;20.80
33109;HTU21D;19481;51.118;6.940;2022-07-19T08:04:59;36.31;19.44
33109;HTU21D;19481;51.118;6.940;2022-07-19T08:10:03;36.45;18.93
33109;HTU21D;19481;51.118;6.940;2022-07-19T08:15:07;36.47;18.96
33109;HTU21D;19481;51.118;6.940;2022-07-19T08:20:09;36.89;18.06
33109;HTU21D;19481;51.118;6.940;2022-07-19T08:25:12;37.32;17.22
33109;HTU21D;19481;51.118;6.940;2022-07-19T08:30:16;37.73;10.91
33109;HTU21D;19481;51.118;6.940;2022-07-19T08:35:20;37.58;14.03
33109;HTU21D;19481;51.118;6.940;2022-07-19T08:40:23;37.15;15.21
33109;HTU21D;19481;51.118;6.940;2022-07-19T08:45:27;37.63;14.47
33109;HTU21D;19481;51.118;6.940;2022-07-19T08:50:29;38.32;15.74
33109;HTU21D;19481;51.118;6.940;2022-07-19T08:55:33;38.38;15.14
33109;HTU21D;19481;51.118;6.940;2022-07-19T09:00:35;37.72;15.71
33109;HTU21D;19481;51.118;6.940;2022-07-19T09:05:38;37.74;13.97
33109;HTU21D;19481;51.118;6.940;2022-07-19T09:10:43;37.82;12.69
33109;HTU21D;19481;51.118;6.940;2022-07-19T09:16:05;38.19;13.75
33109;HTU21D;19481;51.118;6.940;2022-07-19T09:21:07;37.97;14.53
33109;HTU21D;19481;51.118;6.940;2022-07-19T09:26:10;39.15;12.14
33109;HTU21D;19481;51.118;6.940;2022-07-19T09:31:12;38.60;13.97
33109;HTU21D;19481;51.118;6.940;2022-07-19T09:36:14;39.29;13.05
33109;HTU21D;19481;51.118;6.940;2022-07-19T09:41:19;39.72;12.58
33109;HTU21D;19481;51.118;6.940;2022-07-19T09:46:31;38.70;9.35
33109;HTU21D;19481;51.118;6.940;2022-07-19T09:51:34;38.83;13.23
33109;HTU21D;19481;51.118;6.940;2022-07-19T09:56:39;37.89;13.97
33109;HTU21D;19481;51.118;6.940;2022-07-19T10:01:41;38.45;13.22
33109;HTU21D;19481;51.118;6.940;2022-07-19T10:06:44;38.78;12.30
33109;HTU21D;19481;51.118;6.940;2022-07-19T10:11:48;38.05;11.36
33109;HTU21D;19481;51.118;6.940;2022-07-19T10:16:58;38.43;8.06
33109;HTU21D;19481;51.118;6.940;2022-07-19T10:22:03;38.32;11.98
33109;HTU21D;19481;51.118;6.940;2022-07-19T10:27:06;39.00;11.06
33109;HTU21D;19481;51.118;6.940;2022-07-19T10:32:10;38.10;11.59
33109;HTU21D;19481;51.118;6.940;2022-07-19T10:37:12;38.51;11.27
33109;HTU21D;19481;51.118;6.940;2022-07-19T10:42:17;38.52;9.01
33109;HTU21D;19481;51.118;6.940;2022-07-19T10:47:19;38.52;10.94
33109;HTU21D;19481;51.118;6.940;2022-07-19T10:52:33;38.40;7.40
33109;HTU21D;19481;51.118;6.940;2022-07-19T10:57:36;38.75;10.27
33109;HTU21D;19481;51.118;6.940;2022-07-19T11:02:38;38.16;10.62
33109;HTU21D;19481;51.118;6.940;2022-07-19T11:07:47;38.32;8.88
33109;HTU21D;19481;51.118;6.940;2022-07-19T11:12:51;38.38;10.31
33109;HTU21D;19481;51.118;6.940;2022-07-19T11:17:54;38.83;9.73
33109;HTU21D;19481;51.118;6.940;2022-07-19T11:22:57;38.02;9.85
33109;HTU21D;19481;51.118;6.940;2022-07-19T11:28:00;38.15;8.17
33109;HTU21D;19481;51.118;6.940;2022-07-19T11:33:03;38.51;8.25
33109;HTU21D;19481;51.118;6.940;2022-07-19T11:38:06;39.10;7.28
33109;HTU21D;19481;51.118;6.940;2022-07-19T11:43:09;38.45;9.03
33109;HTU21D;19481;51.118;6.940;2022-07-19T11:48:10;38.74;8.88
33109;HTU21D;19481;51.118;6.940;2022-07-19T11:53:18;38.75;7.36
33109;HTU21D;19481;51.118;6.940;2022-07-19T11:58:22;39.09;7.81
33109;HTU21D;19481;51.118;6.940;2022-07-19T12:03:24;39.41;8.18
33109;HTU21D;19481;51.118;6.940;2022-07-19T12:08:34;38.89;6.79
33109;HTU21D;19481;51.118;6.940;2022-07-19T12:13:37;39.26;8.52
33109;HTU21D;19481;51.118;6.940;2022-07-19T12:18:45;39.21;6.36
33109;HTU21D;19481;51.118;6.940;2022-07-19T12:24:21;39.67;5.80
33109;HTU21D;19481;51.118;6.940;2022-07-19T12:29:26;39.99;7.76
33109;HTU21D;19481;51.118;6.940;2022-07-19T12:34:29;39.69;7.41
33109;HTU21D;19481;51.118;6.940;2022-07-19T12:39:30;39.11;8.09
33109;HTU21D;19481;51.118;6.940;2022-07-19T12:44:34;39.25;7.63
33109;HTU21D;19481;51.118;6.940;2022-07-19T12:49:42;39.41;6.60
33109;HTU21D;19481;51.118;6.940;2022-07-19T12:54:44;39.02;8.07
33109;HTU21D;19481;51.118;6.940;2022-07-19T12:59:47;39.54;7.73
33109;HTU21D;19481;51.118;6.940;2022-07-19T13:04:49;39.33;7.80
33109;HTU21D;19481;51.118;6.940;2022-07-19T13:09:50;39.79;6.92
33109;HTU21D;19481;51.118;6.940;2022-07-19T13:14:54;39.18;6.39
33109;HTU21D;19481;51.118;6.940;2022-07-19T13:19:56;38.95;8.02
33109;HTU21D;19481;51.118;6.940;2022-07-19T13:25:00;39.59;7.37
33109;HTU21D;19481;51.118;6.940;2022-07-19T13:30:03;39.48;7.91
33109;HTU21D;19481;51.118;6.940;2022-07-19T13:35:06;39.95;7.36
33109;HTU21D;19481;51.118;6.940;2022-07-19T13:40:08;39.78;6.87
33109;HTU21D;19481;51.118;6.940;2022-07-19T13:45:11;39.37;6.91
33109;HTU21D;19481;51.118;6.940;2022-07-19T13:50:13;39.64;6.52
33109;HTU21D;19481;51.118;6.940;2022-07-19T13:55:15;39.03;6.20
33109;HTU21D;19481;51.118;6.940;2022-07-19T14:00:18;39.15;6.04
33109;HTU21D;19481;51.118;6.940;2022-07-19T14:05:21;39.11;4.78
33109;HTU21D;19481;51.118;6.940;2022-07-19T14:10:25;38.98;3.71
33109;HTU21D;19481;51.118;6.940;2022-07-19T14:15:29;39.14;5.44
33109;HTU21D;19481;51.118;6.940;2022-07-19T14:20:30;39.26;5.59
33109;HTU21D;19481;51.118;6.940;2022-07-19T14:25:32;38.79;6.09
33109;HTU21D;19481;51.118;6.940;2022-07-19T14:30:35;38.78;5.57
33109;HTU21D;19481;51.118;6.940;2022-07-19T14:35:37;39.19;5.63
33109;HTU21D;19481;51.118;6.940;2022-07-19T14:40:39;38.91;5.92
33109;HTU21D;19481;51.118;6.940;2022-07-19T14:45:42;38.84;5.99
33109;HTU21D;19481;51.118;6.940;2022-07-19T14:50:43;39.17;5.72
33109;HTU21D;19481;51.118;6.940;2022-07-19T14:55:45;38.96;6.14
33109;HTU21D;19481;51.118;6.940;2022-07-19T15:00:48;38.59;5.79
33109;HTU21D;19481;51.118;6.940;2022-07-19T15:05:49;38.75;6.48
33109;HTU21D;19481;51.118;6.940;2022-07-19T15:10:51;38.50;6.78
33109;HTU21D;19481;51.118;6.940;2022-07-19T15:15:54;38.25;6.88
33109;HTU21D;19481;51.118;6.940;2022-07-19T15:20:56;38.21;6.50
33109;HTU21D;19481;51.118;6.940;2022-07-19T15:25:57;38.24;6.93
33109;HTU21D;19481;51.118;6.940;2022-07-19T15:31:01;38.29;6.86
33109;HTU21D;19481;51.118;6.940;2022-07-19T15:36:03;38.19;7.24
33109;HTU21D;19481;51.118;6.940;2022-07-19T15:41:05;38.25;7.21
33109;HTU21D;19481;51.118;6.940;2022-07-19T15:46:08;38.23;6.60
33109;HTU21D;19481;51.118;6.940;2022-07-19T15:51:11;38.08;7.15
33109;HTU21D;19481;51.118;6.940;2022-07-19T15:56:12;38.19;7.28
33109;HTU21D;19481;51.118;6.940;2022-07-19T16:01:15;38.21;7.25
33109;HTU21D;19481;51.118;6.940;2022-07-19T16:06:18;38.03;7.76
33109;HTU21D;19481;51.118;6.940;2022-07-19T16:11:20;37.95;7.85
33109;HTU21D;19481;51.118;6.940;2022-07-19T16:16:23;38.02;7.55
33109;HTU21D;19481;51.118;6.940;2022-07-19T16:21:26;38.18;7.68
33109;HTU21D;19481;51.118;6.940;2022-07-19T16:26:27;38.01;7.76
33109;HTU21D;19481;51.118;6.940;2022-07-19T16:31:30;37.86;7.74
33109;HTU21D;19481;51.118;6.940;2022-07-19T16:36:32;37.79;7.64
33109;HTU21D;19481;51.118;6.940;2022-07-19T16:41:34;37.73;8.01
33109;HTU21D;19481;51.118;6.940;2022-07-19T16:46:37;37.60;8.02
33109;HTU21D;19481;51.118;6.940;2022-07-19T16:51:39;37.38;8.16
33109;HTU21D;19481;51.118;6.940;2022-07-19T16:56:40;37.36;8.16
33109;HTU21D;19481;51.118;6.940;2022-07-19T17:01:43;37.29;7.82
33109;HTU21D;19481;51.118;6.940;2022-07-19T17:06:45;37.28;8.13
33109;HTU21D;19481;51.118;6.940;2022-07-19T17:11:47;37.23;8.20
33109;HTU21D;19481;51.118;6.940;2022-07-19T17:16:50;37.13;8.02
33109;HTU21D;19481;51.118;6.940;2022-07-19T17:21:52;37.03;8.40
33109;HTU21D;19481;51.118;6.940;2022-07-19T17:26:54;36.91;8.09
33109;HTU21D;19481;51.118;6.940;2022-07-19T17:31:59;36.84;8.14
33109;HTU21D;19481;51.118;6.940;2022-07-19T17:37:01;36.74;8.24
33109;HTU21D;19481;51.118;6.940;2022-07-19T17:42:03;36.68;8.32
33109;HTU21D;19481;51.118;6.940;2022-07-19T17:47:06;36.58;7.92
33109;HTU21D;19481;51.118;6.940;2022-07-19T17:52:07;36.47;8.18
33109;HTU21D;19481;51.118;6.940;2022-07-19T17:57:10;36.39;8.61
33109;HTU21D;19481;51.118;6.940;2022-07-19T18:02:13;36.29;8.69
33109;HTU21D;19481;51.118;6.940;2022-07-19T18:07:15;36.15;8.93
33109;HTU21D;19481;51.118;6.940;2022-07-19T18:12:17;36.04;9.07
33109;HTU21D;19481;51.118;6.940;2022-07-19T18:17:20;35.95;9.16
33109;HTU21D;19481;51.118;6.940;2022-07-19T18:22:21;35.82;9.29
33109;HTU21D;19481;51.118;6.940;2022-07-19T18:27:24;35.66;9.50
33109;HTU21D;19481;51.118;6.940;2022-07-19T18:32:27;35.54;9.64
33109;HTU21D;19481;51.118;6.940;2022-07-19T18:37:28;35.37;9.89
33109;HTU21D;19481;51.118;6.940;2022-07-19T18:42:30;35.25;10.05
33109;HTU21D;19481;51.118;6.940;2022-07-19T18:47:33;35.06;10.27
33109;HTU21D;19481;51.118;6.940;2022-07-19T18:52:35;34.89;10.47
33109;HTU21D;19481;51.118;6.940;2022-07-19T18:57:36;34.68;10.73
33109;HTU21D;19481;51.118;6.940;2022-07-19T19:02:39;34.48;10.93
33109;HTU21D;19481;51.118;6.940;2022-07-19T19:07:41;34.31;11.16
33109;HTU21D;19481;51.118;6.940;2022-07-19T19:12:43;34.03;11.52
33109;HTU21D;19481;51.118;6.940;2022-07-19T19:17:46;33.82;11.74
33109;HTU21D;19481;51.118;6.940;2022-07-19T19:22:48;33.58;12.01
33109;HTU21D;19481;51.118;6.940;2022-07-19T19:27:50;33.33;12.27
33109;HTU21D;19481;51.118;6.940;2022-07-19T19:32:53;33.00;12.71
33109;HTU21D;19481;51.118;6.940;2022-07-19T19:37:54;32.75;12.95
33109;HTU21D;19481;51.118;6.940;2022-07-19T19:42:56;32.53;13.20
33109;HTU21D;19481;51.118;6.940;2022-07-19T19:47:59;32.32;13.45
33109;HTU21D;19481;51.118;6.940;2022-07-19T19:53:01;32.10;13.65
33109;HTU21D;19481;51.118;6.940;2022-07-19T19:58:03;31.84;13.95
33109;HTU21D;19481;51.118;6.940;2022-07-19T20:03:06;31.61;14.23
33109;HTU21D;19481;51.118;6.940;2022-07-19T20:08:09;31.44;14.40
33109;HTU21D;19481;51.118;6.940;2022-07-19T20:13:11;31.23;14.69
33109;HTU21D;19481;51.118;6.940;2022-07-19T20:18:16;31.07;15.03
33109;HTU21D;19481;51.118;6.940;2022-07-19T20:23:18;30.85;15.16
33109;HTU21D;19481;51.118;6.940;2022-07-19T20:28:19;30.71;15.35
33109;HTU21D;19481;51.118;6.940;2022-07-19T20:33:23;30.56;15.63
33109;HTU21D;19481;51.118;6.940;2022-07-19T20:38:25;30.45;15.70
33109;HTU21D;19481;51.118;6.940;2022-07-19T20:43:27;30.34;15.84
33109;HTU21D;19481;51.118;6.940;2022-07-19T20:48:30;30.32;16.16
33109;HTU21D;19481;51.118;6.940;2022-07-19T20:53:32;30.20;16.03
33109;HTU21D;19481;51.118;6.940;2022-07-19T20:58:33;29.95;16.35
33109;HTU21D;19481;51.118;6.940;2022-07-19T21:03:36;29.81;16.55
33109;HTU21D;19481;51.118;6.940;2022-07-19T21:08:38;29.58;16.98
33109;HTU21D;19481;51.118;6.940;2022-07-19T21:13:40;28.94;18.54
33109;HTU21D;19481;51.118;6.940;2022-07-19T21:18:43;28.29;19.96
33109;HTU21D;19481;51.118;6.940;2022-07-19T21:23:45;27.93;20.39
33109;HTU21D;19481;51.118;6.940;2022-07-19T21:28:46;27.69;20.71
33109;HTU21D;19481;51.118;6.940;2022-07-19T21:33:49;27.55;20.94
33109;HTU21D;19481;51.118;6.940;2022-07-19T21:39:06;27.37;21.08
33109;HTU21D;19481;51.118;6.940;2022-07-19T21:44:09;27.53;20.47
33109;HTU21D;19481;51.118;6.940;2022-07-19T21:49:12;27.47;20.63
33109;HTU21D;19481;51.118;6.940;2022-07-19T21:54:13;27.43;20.65
33109;HTU21D;19481;51.118;6.940;2022-07-19T21:59:15;27.43;20.46
33109;HTU21D;19481;51.118;6.940;2022-07-19T22:04:18;27.55;20.22
33109;HTU21D;19481;51.118;6.940;2022-07-19T22:09:19;27.67;19.90
33109;HTU21D;19481;51.118;6.940;2022-07-19T22:14:21;27.82;19.70
33109;HTU21D;19481;51.118;6.940;2022-07-19T22:19:24;27.80;19.78
33109;HTU21D;19481;51.118;6.940;2022-07-19T22:24:26;27.85;19.71
33109;HTU21D;19481;51.118;6.940;2022-07-19T22:29:27;27.80;19.83
33109;HTU21D;19481;51.118;6.940;2022-07-19T22:34:31;27.75;20.18
33109;HTU21D;19481;51.118;6.940;2022-07-19T22:39:33;27.60;20.28
33109;HTU21D;19481;51.118;6.940;2022-07-19T22:44:35;27.41;20.59
33109;HTU21D;19481;51.118;6.940;2022-07-19T22:49:37;27.08;21.26
33109;HTU21D;19481;51.118;6.940;2022-07-19T22:54:39;26.89;21.78
33109;HTU21D;19481;51.118;6.940;2022-07-19T22:59:41;26.56;22.31
33109;HTU21D;19481;51.118;6.940;2022-07-19T23:04:44;26.17;23.29
33109;HTU21D;19481;51.118;6.940;2022-07-19T23:09:45;25.81;24.08
33109;HTU21D;19481;51.118;6.940;2022-07-19T23:14:47;25.49;24.62
33109;HTU21D;19481;51.118;6.940;2022-07-19T23:19:50;25.31;25.01
33109;HTU21D;19481;51.118;6.940;2022-07-19T23:24:51;25.15;25.07
33109;HTU21D;19481;51.118;6.940;2022-07-19T23:29:53;25.02;25.17
33109;HTU21D;19481;51.118;6.940;2022-07-19T23:34:56;24.94;25.24
33109;HTU21D;19481;51.118;6.940;2022-07-19T23:39:57;25.42;24.07
33109;HTU21D;19481;51.118;6.940;2022-07-19T23:44:59;25.04;24.91
33109;HTU21D;19481;51.118;6.940;2022-07-19T23:50:02;24.85;25.25
33109;HTU21D;19481;51.118;6.940;2022-07-19T23:55:04;24.86;25.06
